createdAt,value
2018-09-21T06:53:28.976Z,70.06
2018-09-21T06:55:58.063Z,67.27
2018-09-21T06:58:26.556Z,67.62
2018-09-21T07:00:55.444Z,66.85
2018-09-21T07:03:23.858Z,65.94
2018-09-21T07:05:52.382Z,66.06
2018-09-21T07:08:20.815Z,64.56
2018-09-21T07:10:49.533Z,61.69
2018-09-21T07:13:18.060Z,59.88
2018-09-21T07:15:46.545Z,59.76
2018-09-21T07:18:14.982Z,57.24
2018-09-21T07:20:43.411Z,55.77
2018-09-21T07:23:11.826Z,55.28
2018-09-21T07:25:40.248Z,52.56
2018-09-21T07:28:08.659Z,52.32
2018-09-21T07:30:37.040Z,51.19
2018-09-21T07:33:05.489Z,50.96
2018-09-21T07:35:34.219Z,50.68
2018-09-21T07:38:02.759Z,50.13
2018-09-21T07:40:31.375Z,50.75
2018-09-21T07:42:59.875Z,50.10
2018-09-21T07:45:28.448Z,49.12
2018-09-21T07:47:57.210Z,50.16
2018-09-21T07:50:25.768Z,49.08
2018-09-21T07:52:54.707Z,49.85
2018-09-21T07:55:23.176Z,49.29
2018-09-21T07:57:51.857Z,49.58
2018-09-21T08:00:20.325Z,50.21
2018-09-21T08:02:49.149Z,50.46
2018-09-21T08:05:21.789Z,50.59
2018-09-21T08:07:50.362Z,50.15
2018-09-21T08:10:18.916Z,50.07
2018-09-21T08:12:47.428Z,50.21
2018-09-21T08:15:16.016Z,49.29
2018-09-21T08:17:44.875Z,49.30
2018-09-21T08:20:13.460Z,48.45
2018-09-21T08:22:42.268Z,49.24
2018-09-21T08:25:10.963Z,48.31
2018-09-21T08:27:39.555Z,48.80
2018-09-21T08:30:08.064Z,47.58
2018-09-21T08:32:36.816Z,47.17
2018-09-21T08:35:05.685Z,48.06
2018-09-21T08:37:34.204Z,47.74
2018-09-21T08:40:02.721Z,47.90
2018-09-21T08:42:31.713Z,47.61
2018-09-21T08:45:00.100Z,46.05
2018-09-21T08:47:28.560Z,45.11
2018-09-21T08:49:57.828Z,44.91
2018-09-21T08:52:26.325Z,43.60
2018-09-21T08:54:54.841Z,44.38
2018-09-21T08:57:23.724Z,43.57
2018-09-21T08:59:52.143Z,43.88
2018-09-21T09:02:20.610Z,43.66
2018-09-21T09:04:49.124Z,43.62
2018-09-21T09:07:17.739Z,44.29
2018-09-21T09:09:46.350Z,42.53
2018-09-21T09:12:14.806Z,43.72
2018-09-21T09:14:43.275Z,43.40
2018-09-21T09:17:11.807Z,43.53
2018-09-21T09:19:40.244Z,43.65
2018-09-21T09:22:08.723Z,43.66
2018-09-21T09:24:37.263Z,44.54
2018-09-21T09:27:05.678Z,43.34
2018-09-21T09:29:34.261Z,42.72
2018-09-21T09:32:02.884Z,42.02
2018-09-21T09:34:31.431Z,42.60
2018-09-21T09:37:00.452Z,42.67
2018-09-21T09:39:28.916Z,41.91
2018-09-21T09:41:57.707Z,41.91
2018-09-21T09:44:26.952Z,43.44
2018-09-21T09:46:55.441Z,42.83
2018-09-21T09:49:24.003Z,43.61
2018-09-21T09:51:52.565Z,44.00
2018-09-21T09:54:21.143Z,44.98
2018-09-21T09:56:49.636Z,45.17
2018-09-21T09:59:18.843Z,45.32
2018-09-21T10:01:47.343Z,45.87
2018-09-21T10:04:16.100Z,43.43
2018-09-21T10:06:44.744Z,43.95
2018-09-21T10:09:13.290Z,43.67
2018-09-21T10:11:41.863Z,43.35
2018-09-21T10:14:10.314Z,44.32
2018-09-21T10:16:38.797Z,44.46
2018-09-21T10:19:07.276Z,44.04
2018-09-21T10:21:35.774Z,44.43
2018-09-21T10:24:04.322Z,44.89
2018-09-21T10:26:33.203Z,45.64
2018-09-21T10:29:01.723Z,45.16
2018-09-21T10:31:30.247Z,45.22
2018-09-21T10:33:59.209Z,45.49
2018-09-21T10:36:28.735Z,45.74
2018-09-21T10:38:57.260Z,46.04
2018-09-21T10:41:26.552Z,44.79
2018-09-21T10:43:55.796Z,45.28
2018-09-21T10:46:24.305Z,44.30
2018-09-21T10:48:53.260Z,44.73
2018-09-21T10:51:21.761Z,44.88
2018-09-21T10:53:50.545Z,44.23
2018-09-21T10:56:19.177Z,43.77
2018-09-21T10:58:47.716Z,44.15
2018-09-21T11:01:16.304Z,43.28
2018-09-21T11:03:44.909Z,44.18
2018-09-21T11:06:13.416Z,45.10
2018-09-21T11:08:41.957Z,45.03
2018-09-21T11:11:10.389Z,45.48
2018-09-21T11:13:38.941Z,45.72
2018-09-21T11:16:07.523Z,46.48
2018-09-21T11:18:36.011Z,46.65
2018-09-21T11:21:04.652Z,46.13
2018-09-21T11:23:33.309Z,45.83
2018-09-21T11:26:01.804Z,45.58
2018-09-21T11:28:30.344Z,45.92
2018-09-21T11:30:59.135Z,45.11
2018-09-21T11:33:27.694Z,44.81
2018-09-21T11:35:56.773Z,44.17
2018-09-21T11:38:25.240Z,43.69
2018-09-21T11:40:54.530Z,42.95
2018-09-21T11:43:23.649Z,43.46
2018-09-21T11:45:52.236Z,42.54
2018-09-21T11:48:20.686Z,42.50
2018-09-21T11:50:49.574Z,42.14
2018-09-21T11:53:18.537Z,42.23
2018-09-21T11:55:47.157Z,41.90
2018-09-21T11:58:15.605Z,41.68
2018-09-21T12:00:44.164Z,41.52
2018-09-21T12:03:12.818Z,41.95
2018-09-21T12:05:41.741Z,41.04
2018-09-21T12:08:10.421Z,39.88
2018-09-21T12:10:39.063Z,37.33
2018-09-21T12:13:07.508Z,38.32
2018-09-21T12:15:35.993Z,37.86
2018-09-21T12:18:04.581Z,39.02
2018-09-21T12:20:33.602Z,39.39
2018-09-21T12:23:02.264Z,39.74
2018-09-21T12:25:31.653Z,40.37
2018-09-21T12:28:00.483Z,39.91
2018-09-21T12:30:29.940Z,38.70
2018-09-21T12:32:58.756Z,39.26
2018-09-21T12:35:27.560Z,38.38
2018-09-21T12:37:56.203Z,40.34
2018-09-21T12:40:24.780Z,39.42
2018-09-21T12:42:53.237Z,40.26
2018-09-21T12:45:21.753Z,40.70
2018-09-21T12:47:50.381Z,40.55
2018-09-21T12:50:18.966Z,41.58
2018-09-21T12:52:47.612Z,40.92
2018-09-21T12:55:18.097Z,41.31
2018-09-21T12:57:47.015Z,41.75
2018-09-21T13:00:15.617Z,42.28
2018-09-21T13:02:44.430Z,42.42
2018-09-21T13:05:13.161Z,42.44
2018-09-21T13:07:41.684Z,42.49
2018-09-21T13:10:09.765Z,42.14
2018-09-21T13:12:38.302Z,41.76
2018-09-21T13:15:07.213Z,41.60
2018-09-21T13:17:35.696Z,41.83
2018-09-21T13:20:04.215Z,42.25
2018-09-21T13:22:33.460Z,41.82
2018-09-21T13:25:02.099Z,41.15
2018-09-21T13:27:31.602Z,40.86
2018-09-21T13:30:00.204Z,40.20
2018-09-21T13:32:28.693Z,40.94
2018-09-21T13:34:57.259Z,40.91
2018-09-21T13:37:25.733Z,40.94
2018-09-21T13:39:54.306Z,40.77
2018-09-21T13:42:22.840Z,40.02
2018-09-21T13:44:51.597Z,39.87
2018-09-21T13:47:20.272Z,40.74
2018-09-21T13:49:48.760Z,39.93
2018-09-21T13:52:17.488Z,39.23
2018-09-21T13:57:18.795Z,38.02
2018-09-21T13:59:47.262Z,38.30
2018-09-21T14:02:15.959Z,37.94
2018-09-21T14:04:46.016Z,37.77
2018-09-21T14:07:14.735Z,37.89
2018-09-21T14:09:43.237Z,38.33
2018-09-21T14:12:11.827Z,37.20
2018-09-21T14:14:40.537Z,37.67
2018-09-21T14:17:08.977Z,37.45
2018-09-21T14:19:44.145Z,38.30
2018-09-21T14:22:12.725Z,37.44
2018-09-21T14:24:41.182Z,36.88
2018-09-21T14:27:09.712Z,36.38
2018-09-21T14:29:38.236Z,37.05
2018-09-21T14:32:07.782Z,37.22
2018-09-21T14:34:36.317Z,37.23
2018-09-21T14:37:05.999Z,37.09
2018-09-21T14:39:34.596Z,37.99
2018-09-21T14:42:03.267Z,36.90
2018-09-21T14:44:32.047Z,37.04
2018-09-21T14:47:00.743Z,37.51
2018-09-21T14:49:29.344Z,37.89
2018-09-21T14:51:58.018Z,37.52
2018-09-21T14:54:26.617Z,37.63
2018-09-21T14:56:55.271Z,38.21
2018-09-21T14:59:23.783Z,38.51
2018-09-21T15:01:52.559Z,41.47
2018-09-21T15:04:22.273Z,46.45
2018-09-21T15:12:37.676Z,60.36
2018-09-21T21:36:39.368Z,72.03
2018-09-21T21:39:08.852Z,73.00
2018-09-21T21:41:37.483Z,72.13
2018-09-21T21:44:05.715Z,73.10
2018-09-21T21:46:34.079Z,73.32
2018-09-21T21:49:02.193Z,73.24
2018-09-21T21:51:30.404Z,74.12
2018-09-21T21:53:58.641Z,73.54
2018-09-21T21:56:26.826Z,73.46
2018-09-21T21:58:55.068Z,73.78
2018-09-21T22:02:39.331Z,73.48
2018-09-21T22:05:07.431Z,73.49
2018-09-21T22:07:36.880Z,74.63
2018-09-21T22:10:06.524Z,74.00
2018-09-21T22:12:40.122Z,73.97
2018-09-21T22:15:13.701Z,74.33
2018-09-21T22:17:41.831Z,73.44
2018-09-21T22:20:10.107Z,73.75
2018-09-21T22:22:38.453Z,74.78
2018-09-21T22:25:06.627Z,73.91
2018-09-21T22:27:34.784Z,74.08
2018-09-21T22:30:02.927Z,74.13
2018-09-21T22:32:31.143Z,73.36
2018-09-21T22:34:59.257Z,73.97
2018-09-21T22:37:27.941Z,73.82
2018-09-21T22:39:56.295Z,73.54
2018-09-21T22:42:24.595Z,74.31
2018-09-21T22:44:52.761Z,73.56
2018-09-21T22:47:20.953Z,74.11
2018-09-21T22:49:49.124Z,74.02
2018-09-21T22:52:17.281Z,74.38
2018-09-21T22:54:45.579Z,74.03
2018-09-21T22:57:13.938Z,73.87
2018-09-21T22:59:42.228Z,74.09
2018-09-21T23:02:10.869Z,73.87
2018-09-21T23:04:39.031Z,74.21
2018-09-21T23:07:10.216Z,74.36
2018-09-21T23:09:38.473Z,74.46
2018-09-21T23:12:06.995Z,74.32
2018-09-21T23:14:35.224Z,76.22
2018-09-21T23:17:03.338Z,76.16
2018-09-21T23:19:31.594Z,76.15
2018-09-21T23:21:59.809Z,75.88
2018-09-21T23:24:27.913Z,76.05
2018-09-21T23:26:56.204Z,76.32
2018-09-21T23:29:24.377Z,75.63
2018-09-21T23:31:52.613Z,75.43
2018-09-21T23:34:20.714Z,74.95
2018-09-21T23:36:48.925Z,75.52
2018-09-21T23:39:17.199Z,74.35
2018-09-21T23:41:45.366Z,73.35
2018-09-21T23:44:13.660Z,73.35
2018-09-21T23:46:42.821Z,72.90
2018-09-21T23:49:11.011Z,73.75
2018-09-21T23:51:39.202Z,73.24
2018-09-21T23:54:07.382Z,73.32
2018-09-21T23:56:35.546Z,72.79
2018-09-21T23:59:04.446Z,72.72
